Time;durP1;ratioP1;P1;durP2;ratioP2;P2;SDS_P1;SDS_P2;PMS_P1;PMS_P2;Temp;Humidity;BMP_temperature;BMP_pressure;BME280_temperature;BME280_humidity;BME280_pressure;Samples;Min_cycle;Max_cycle;Signal;HPM_P1;HPM_P2
2022/08/06 00:00:41;;;;;;;2.67;0.93;;;13.10;99.90;;;;;;5074110;28;20195;-41
2022/08/06 00:03:07;;;;;;;4.27;0.90;;;13.10;99.90;;;;;;5074020;28;20191;-39
2022/08/06 00:05:33;;;;;;;2.63;1.00;;;13.00;99.90;;;;;;5073957;28;20176;-40
2022/08/06 00:07:58;;;;;;;4.93;1.20;;;13.00;99.90;;;;;;5073940;28;20195;-40
2022/08/06 00:10:25;;;;;;;1.60;0.70;;;12.90;99.90;;;;;;5074076;28;20211;-40
2022/08/06 00:12:51;;;;;;;2.40;0.83;;;12.90;99.90;;;;;;5073867;28;20532;-42
2022/08/06 00:15:17;;;;;;;3.37;1.10;;;12.90;99.90;;;;;;5073544;28;20190;-38
2022/08/06 00:17:44;;;;;;;1.90;0.80;;;12.80;99.90;;;;;;5074043;28;20187;-40
2022/08/06 00:20:15;;;;;;;3.23;0.83;;;12.90;99.90;;;;;;5073446;28;20203;-40
2022/08/06 00:22:41;;;;;;;5.43;1.10;;;12.80;99.90;;;;;;5073571;28;20822;-42
2022/08/06 00:25:07;;;;;;;2.70;0.90;;;12.80;99.90;;;;;;5073960;28;20675;-41
2022/08/06 00:27:34;;;;;;;1.33;0.70;;;12.70;99.90;;;;;;5073790;28;20210;-41
2022/08/06 00:29:59;;;;;;;1.87;1.10;;;12.70;99.90;;;;;;5073309;28;20218;-41
2022/08/06 00:32:25;;;;;;;4.10;1.00;;;12.60;99.90;;;;;;5073437;28;20172;-42
2022/08/06 00:34:51;;;;;;;2.13;0.80;;;12.60;99.90;;;;;;5073297;28;20221;-41
2022/08/06 00:37:17;;;;;;;2.53;0.93;;;12.50;99.90;;;;;;5073292;28;20191;-41
2022/08/06 00:39:42;;;;;;;3.03;0.90;;;12.50;99.90;;;;;;5073211;28;20215;-42
2022/08/06 00:42:08;;;;;;;1.43;0.80;;;12.50;99.90;;;;;;5073552;28;20207;-41
2022/08/06 00:44:34;;;;;;;2.40;0.90;;;12.40;99.90;;;;;;5073383;28;20228;-41
2022/08/06 00:47:00;;;;;;;2.77;0.70;;;12.40;99.90;;;;;;5073338;28;20608;-42
2022/08/06 00:49:26;;;;;;;2.73;0.90;;;12.30;99.90;;;;;;5073473;28;20226;-41
2022/08/06 00:51:52;;;;;;;2.53;0.90;;;12.30;99.90;;;;;;5073841;28;20667;-41
2022/08/06 00:54:21;;;;;;;5.40;1.10;;;12.20;99.90;;;;;;5077672;28;20183;-40
2022/08/06 00:56:46;;;;;;;3.37;0.80;;;12.10;99.90;;;;;;5077256;28;20753;-41
2022/08/06 00:59:12;;;;;;;2.87;1.00;;;12.00;99.90;;;;;;5077385;28;20176;-40
2022/08/06 01:01:38;;;;;;;2.27;1.00;;;12.00;99.90;;;;;;5077349;28;20685;-41
2022/08/06 01:04:04;;;;;;;1.10;0.67;;;11.90;99.90;;;;;;5077201;28;20298;-42
2022/08/06 01:06:29;;;;;;;4.83;0.90;;;11.80;99.90;;;;;;5077167;28;20546;-40
2022/08/06 01:08:56;;;;;;;1.10;0.80;;;11.70;99.90;;;;;;5076989;28;20289;-43
2022/08/06 01:11:21;;;;;;;1.80;0.80;;;11.70;99.90;;;;;;5077143;28;20197;-42
2022/08/06 01:13:47;;;;;;;2.40;0.90;;;11.60;99.90;;;;;;5077590;28;20175;-42
2022/08/06 01:16:23;;;;;;;2.53;0.80;;;11.50;99.90;;;;;;5077836;28;20267;-42
2022/08/06 01:19:24;;;;;;;1.30;0.80;;;11.50;99.90;;;;;;5077374;28;20167;-40
2022/08/06 01:22:23;;;;;;;2.00;0.80;;;11.40;99.90;;;;;;5075945;28;20196;-42
2022/08/06 01:24:54;;;;;;;1.83;0.80;;;11.30;99.90;;;;;;5077570;28;20164;-42
2022/08/06 01:27:29;;;;;;;2.83;0.93;;;11.30;99.90;;;;;;5075750;28;20275;-41
2022/08/06 01:30:00;;;;;;;0.87;0.70;;;11.20;99.90;;;;;;5077309;28;20191;-41
2022/08/06 01:32:32;;;;;;;2.40;1.10;;;11.10;99.90;;;;;;5077420;28;20164;-40
2022/08/06 01:35:16;;;;;;;6.10;1.30;;;11.10;99.90;;;;;;5076817;28;20526;-40
2022/08/06 01:37:56;;;;;;;2.17;0.80;;;11.10;99.90;;;;;;5075273;28;20188;-40
2022/08/06 01:40:26;;;;;;;1.90;0.80;;;11.00;99.90;;;;;;5076507;28;20203;-41
2022/08/06 01:42:54;;;;;;;1.27;0.90;;;11.00;99.90;;;;;;5076976;28;20187;-40
2022/08/06 01:45:23;;;;;;;1.77;0.90;;;10.90;99.90;;;;;;5075028;28;20182;-39
2022/08/06 01:47:53;;;;;;;1.63;1.00;;;10.90;99.90;;;;;;5076558;28;20258;-42
2022/08/06 01:50:22;;;;;;;2.17;0.90;;;10.90;99.90;;;;;;5076164;28;20294;-40
2022/08/06 01:52:50;;;;;;;3.27;0.93;;;10.90;99.90;;;;;;5076450;28;20520;-41
2022/08/06 01:55:18;;;;;;;2.53;0.90;;;10.80;99.90;;;;;;5076742;28;20241;-39
2022/08/06 01:57:49;;;;;;;1.87;1.00;;;10.80;99.90;;;;;;5076345;28;20172;-39
2022/08/06 02:00:17;;;;;;;3.10;1.00;;;10.70;99.90;;;;;;5076091;28;20195;-42
2022/08/06 02:02:45;;;;;;;2.23;1.00;;;10.70;99.90;;;;;;5076109;28;20171;-40
2022/08/06 02:05:13;;;;;;;2.67;1.20;;;10.70;99.90;;;;;;5074597;28;20182;-40
2022/08/06 02:07:42;;;;;;;3.10;0.90;;;10.70;99.90;;;;;;5076352;28;20648;-42
2022/08/06 02:10:11;;;;;;;1.10;1.00;;;10.60;99.90;;;;;;5076121;28;20239;-41
2022/08/06 02:12:38;;;;;;;3.07;1.10;;;10.60;99.90;;;;;;5075775;28;20242;-39
2022/08/06 02:15:11;;;;;;;5.33;1.13;;;10.60;99.90;;;;;;5075808;28;20229;-39
2022/08/06 02:17:42;;;;;;;2.93;1.37;;;10.60;99.90;;;;;;5076006;28;20169;-41
2022/08/06 02:20:10;;;;;;;1.70;1.10;;;10.50;99.90;;;;;;5075995;28;20203;-40
2022/08/06 02:22:39;;;;;;;2.53;1.20;;;10.50;99.90;;;;;;5074273;28;20316;-44
2022/08/06 02:25:10;;;;;;;3.30;1.30;;;10.50;99.90;;;;;;5075506;28;20176;-41
2022/08/06 02:27:38;;;;;;;5.07;1.00;;;10.50;99.90;;;;;;5075530;28;20270;-40
2022/08/06 02:30:04;;;;;;;2.73;1.27;;;10.40;99.90;;;;;;5075450;28;20291;-41
2022/08/06 02:32:29;;;;;;;2.13;1.30;;;10.40;99.90;;;;;;5075732;28;20179;-41
2022/08/06 02:34:55;;;;;;;3.83;1.50;;;10.40;99.90;;;;;;5074133;28;20249;-43
2022/08/06 02:37:45;;;;;;;2.73;1.37;;;10.40;99.90;;;;;;5075187;28;20187;-42
2022/08/06 02:40:23;;;;;;;4.23;1.63;;;10.40;99.90;;;;;;5075532;28;20203;-41
2022/08/06 02:42:58;;;;;;;3.97;1.47;;;10.40;99.90;;;;;;5075280;28;20254;-43
2022/08/06 02:45:38;;;;;;;6.30;1.30;;;10.30;99.90;;;;;;5075187;28;20189;-40
2022/08/06 02:48:24;;;;;;;1.53;1.30;;;10.30;99.90;;;;;;5075166;28;20224;-42
2022/08/06 02:50:51;;;;;;;3.63;1.33;;;10.30;99.90;;;;;;5075189;28;20218;-42
2022/08/06 02:53:23;;;;;;;5.47;2.43;;;10.20;99.90;;;;;;5074938;28;20537;-41
2022/08/06 02:56:11;;;;;;;2.33;1.67;;;10.20;99.90;;;;;;5075262;28;20564;-40
2022/08/06 02:58:44;;;;;;;3.93;1.67;;;10.20;99.90;;;;;;5075154;28;20181;-40
2022/08/06 03:01:18;;;;;;;4.23;1.33;;;10.20;99.90;;;;;;5073426;28;20203;-41
2022/08/06 03:03:46;;;;;;;2.50;1.30;;;10.10;99.90;;;;;;5075140;28;20627;-41
2022/08/06 03:06:14;;;;;;;4.13;1.70;;;10.10;99.90;;;;;;5075079;28;20538;-42
2022/08/06 03:08:40;;;;;;;3.43;1.37;;;10.10;99.90;;;;;;5074575;28;20259;-39
2022/08/06 03:11:09;;;;;;;3.37;1.50;;;10.10;99.90;;;;;;5074672;28;20195;-42
2022/08/06 03:13:37;;;;;;;2.50;1.10;;;10.00;99.90;;;;;;5075069;28;20175;-42
2022/08/06 03:16:05;;;;;;;3.10;1.30;;;10.00;99.90;;;;;;5074565;28;20655;-41
2022/08/06 03:18:32;;;;;;;1.97;1.23;;;10.00;99.90;;;;;;5074929;28;20182;-41
2022/08/06 03:21:01;;;;;;;3.00;1.57;;;9.90;99.90;;;;;;5074692;28;20225;-40
2022/08/06 03:23:29;;;;;;;1.33;1.23;;;9.90;99.90;;;;;;5074876;28;20178;-41
2022/08/06 03:25:56;;;;;;;2.70;1.37;;;9.90;99.90;;;;;;5074735;28;20193;-41
2022/08/06 03:28:23;;;;;;;3.50;1.20;;;9.90;99.90;;;;;;5073360;28;20584;-40
2022/08/06 03:30:50;;;;;;;2.27;1.50;;;9.80;99.90;;;;;;5074524;28;20227;-41
2022/08/06 03:33:17;;;;;;;3.37;1.57;;;9.80;99.90;;;;;;5075481;28;20561;-40
2022/08/06 03:35:44;;;;;;;2.63;1.47;;;9.80;99.90;;;;;;5074582;28;20185;-41
2022/08/06 03:38:12;;;;;;;2.13;1.40;;;9.70;99.90;;;;;;5075458;28;20194;-43
2022/08/06 03:40:41;;;;;;;4.83;1.60;;;9.70;99.90;;;;;;5075275;28;20238;-42
2022/08/06 03:43:07;;;;;;;4.77;1.93;;;9.70;99.90;;;;;;5074804;28;20740;-41
2022/08/06 03:45:38;;;;;;;3.10;1.67;;;9.70;99.90;;;;;;5074563;28;20202;-41
2022/08/06 03:48:07;;;;;;;3.07;1.60;;;9.70;99.90;;;;;;5074545;28;20167;-38
2022/08/06 03:50:42;;;;;;;4.70;2.30;;;9.60;99.90;;;;;;5074313;28;20245;-42
2022/08/06 03:53:13;;;;;;;3.77;2.10;;;9.60;99.90;;;;;;5072687;28;20172;-38
2022/08/06 03:55:39;;;;;;;4.80;1.80;;;9.60;99.90;;;;;;5074273;28;20169;-39
2022/08/06 03:58:09;;;;;;;4.83;2.37;;;9.60;99.90;;;;;;5074504;28;20232;-41
2022/08/06 04:00:40;;;;;;;5.50;2.33;;;9.60;99.90;;;;;;5073630;28;20201;-39
2022/08/06 04:03:07;;;;;;;6.20;2.43;;;9.60;99.90;;;;;;5073806;28;20163;-38
2022/08/06 04:05:35;;;;;;;8.40;2.20;;;9.60;99.90;;;;;;5074085;28;20234;-39
2022/08/06 04:08:05;;;;;;;5.43;2.60;;;9.60;99.90;;;;;;5074397;28;20634;-40
2022/08/06 04:10:37;;;;;;;5.00;1.73;;;9.70;99.90;;;;;;5073581;28;20215;-40
2022/08/06 04:13:14;;;;;;;1.80;1.50;;;9.70;99.90;;;;;;5073832;28;20192;-39
2022/08/06 04:15:40;;;;;;;1.80;1.47;;;9.70;99.90;;;;;;5073661;28;20158;-42
2022/08/06 04:18:15;;;;;;;3.57;1.57;;;9.60;99.90;;;;;;5073533;28;20614;-39
2022/08/06 04:20:44;;;;;;;2.27;1.70;;;9.60;99.90;;;;;;5073575;28;20236;-39
2022/08/06 04:23:10;;;;;;;3.27;1.83;;;9.60;99.90;;;;;;5072371;28;20651;-43
2022/08/06 04:25:39;;;;;;;4.27;1.90;;;9.50;99.90;;;;;;5072123;28;20181;-40
2022/08/06 04:28:06;;;;;;;4.03;2.20;;;9.40;99.90;;;;;;5072781;28;20191;-42
2022/08/06 04:30:34;;;;;;;2.77;2.23;;;9.40;99.90;;;;;;5073515;28;20209;-40
2022/08/06 04:33:02;;;;;;;5.63;2.17;;;9.40;99.90;;;;;;5073422;28;20308;-39
2022/08/06 04:35:30;;;;;;;2.40;1.93;;;9.40;99.90;;;;;;5072098;28;20185;-39
2022/08/06 04:37:56;;;;;;;3.53;1.87;;;9.40;99.90;;;;;;5073446;28;20661;-38
2022/08/06 04:40:23;;;;;;;1.60;1.50;;;9.40;99.90;;;;;;5073507;28;20202;-38
2022/08/06 04:42:49;;;;;;;3.10;1.90;;;9.40;99.90;;;;;;5072400;28;20566;-39
2022/08/06 04:45:15;;;;;;;2.07;1.70;;;9.40;99.90;;;;;;5073268;28;20174;-41
2022/08/06 04:47:42;;;;;;;5.23;2.23;;;9.30;99.90;;;;;;5073518;28;20292;-40
2022/08/06 04:50:10;;;;;;;8.80;2.17;;;9.40;99.90;;;;;;5073169;28;20635;-39
2022/08/06 04:52:36;;;;;;;3.93;2.10;;;9.40;99.90;;;;;;5073561;28;20220;-40
2022/08/06 04:55:02;;;;;;;2.30;1.97;;;9.40;99.90;;;;;;5073810;28;20205;-40
2022/08/06 04:57:27;;;;;;;6.13;2.27;;;9.40;99.90;;;;;;5073098;28;20216;-40
2022/08/06 04:59:53;;;;;;;3.07;2.13;;;9.40;99.90;;;;;;5073892;28;20564;-39
2022/08/06 05:02:20;;;;;;;4.93;2.67;;;9.50;99.90;;;;;;5074004;28;20181;-39
2022/08/06 05:04:46;;;;;;;6.87;2.60;;;9.50;99.90;;;;;;5073222;28;20189;-41
2022/08/06 05:07:28;;;;;;;2.80;2.33;;;9.60;99.90;;;;;;5073705;28;20239;-42
2022/08/06 05:09:55;;;;;;;4.30;2.20;;;9.60;99.90;;;;;;5073295;28;20189;-40
2022/08/06 05:12:27;;;;;;;4.27;2.57;;;9.60;99.90;;;;;;5073050;28;20277;-39
2022/08/06 05:15:03;;;;;;;3.67;2.23;;;9.70;99.90;;;;;;5073553;28;20191;-41
2022/08/06 05:17:39;;;;;;;5.70;3.37;;;9.80;99.90;;;;;;5073235;28;20678;-39
2022/08/06 05:20:27;;;;;;;4.23;2.30;;;9.80;99.90;;;;;;5073279;28;20243;-40
2022/08/06 05:22:56;;;;;;;5.80;2.87;;;9.90;99.90;;;;;;5073299;28;20173;-41
2022/08/06 05:25:22;;;;;;;3.20;2.17;;;10.00;99.90;;;;;;5073321;28;20185;-39
2022/08/06 05:27:48;;;;;;;5.77;3.13;;;10.00;99.90;;;;;;5073212;28;20188;-42
2022/08/06 05:30:14;;;;;;;5.80;2.90;;;10.10;99.90;;;;;;5072915;28;20212;-40
2022/08/06 05:32:45;;;;;;;3.97;2.67;;;10.20;99.90;;;;;;5073200;28;20511;-42
2022/08/06 05:35:10;;;;;;;4.67;3.13;;;10.20;99.90;;;;;;5073154;28;20183;-40
2022/08/06 05:37:37;;;;;;;8.07;3.50;;;10.30;99.90;;;;;;5072882;28;20197;-40
2022/08/06 05:40:04;;;;;;;6.70;4.07;;;10.30;99.90;;;;;;5078283;28;20247;-41
2022/08/06 05:42:29;;;;;;;4.93;3.93;;;10.50;99.90;;;;;;5078509;28;20251;-42
2022/08/06 05:44:55;;;;;;;8.13;4.10;;;10.60;99.90;;;;;;5077274;28;20268;-41
2022/08/06 05:47:24;;;;;;;6.43;3.90;;;10.60;99.90;;;;;;5076341;28;20269;-42
2022/08/06 05:49:56;;;;;;;5.33;4.00;;;10.80;99.90;;;;;;5076107;28;20221;-42
2022/08/06 05:52:37;;;;;;;10.67;4.40;;;11.00;99.90;;;;;;5076540;28;20173;-41
2022/08/06 05:55:08;;;;;;;9.63;3.97;;;11.10;99.90;;;;;;5075018;28;20176;-40
2022/08/06 05:57:54;;;;;;;6.80;3.77;;;11.30;99.90;;;;;;5076654;28;20172;-41
2022/08/06 06:00:22;;;;;;;12.83;4.10;;;11.40;99.90;;;;;;5076492;28;20236;-41
2022/08/06 06:02:50;;;;;;;8.27;4.27;;;11.50;99.90;;;;;;5076159;28;20189;-38
2022/08/06 06:05:18;;;;;;;7.33;4.33;;;11.60;99.90;;;;;;5075050;28;20590;-40
2022/08/06 06:07:44;;;;;;;8.13;4.43;;;11.80;99.90;;;;;;5075966;28;20177;-40
2022/08/06 06:10:12;;;;;;;10.30;4.20;;;11.90;99.90;;;;;;5076023;28;20266;-40
2022/08/06 06:12:39;;;;;;;6.90;4.00;;;12.10;99.90;;;;;;5076312;28;20208;-41
2022/08/06 06:15:05;;;;;;;7.67;4.00;;;12.20;99.90;;;;;;5076067;28;20181;-40
2022/08/06 06:17:55;;;;;;;8.90;4.50;;;12.30;99.90;;;;;;5075745;28;20181;-40
2022/08/06 06:20:42;;;;;;;7.50;3.77;;;12.50;99.90;;;;;;5076358;28;20267;-40
2022/08/06 06:23:43;;;;;;;5.10;3.60;;;12.70;99.90;;;;;;5075695;28;20176;-40
2022/08/06 06:26:22;;;;;;;7.30;3.80;;;12.80;99.90;;;;;;5074502;28;20178;-39
2022/08/06 06:28:54;;;;;;;7.63;4.23;;;13.00;99.90;;;;;;5076051;28;20162;-39
2022/08/06 06:31:40;;;;;;;8.70;4.10;;;13.20;99.90;;;;;;5075756;28;20202;-39
2022/08/06 06:34:17;;;;;;;5.10;3.57;;;13.40;99.90;;;;;;5075776;28;20301;-40
2022/08/06 06:36:50;;;;;;;6.17;4.07;;;13.60;99.90;;;;;;5075542;28;20604;-41
2022/08/06 06:39:27;;;;;;;8.57;3.40;;;13.80;99.90;;;;;;5074215;28;20172;-39
2022/08/06 06:42:13;;;;;;;6.73;3.67;;;14.10;99.90;;;;;;5075592;28;20202;-40
2022/08/06 06:44:42;;;;;;;9.20;2.50;;;14.30;99.90;;;;;;5075409;28;20175;-39
2022/08/06 06:47:19;;;;;;;11.37;3.00;;;14.50;99.90;;;;;;5075471;28;20194;-40
2022/08/06 06:49:59;;;;;;;10.60;3.00;;;14.50;99.90;;;;;;5074494;28;20214;-40
2022/08/06 06:52:33;;;;;;;3.70;2.03;;;14.60;99.90;;;;;;5075508;28;20174;-41
2022/08/06 06:55:14;;;;;;;5.97;2.43;;;14.60;99.90;;;;;;5075484;28;20173;-40
2022/08/06 06:57:45;;;;;;;11.73;2.50;;;14.70;99.90;;;;;;5075786;28;20559;-41
2022/08/06 07:00:12;;;;;;;7.33;2.63;;;14.70;99.90;;;;;;5075275;28;20265;-42
2022/08/06 07:02:40;;;;;;;5.53;2.23;;;14.80;99.90;;;;;;5074971;28;20190;-39
2022/08/06 07:05:08;;;;;;;4.67;2.33;;;14.90;99.90;;;;;;5074983;28;20183;-40
2022/08/06 07:07:38;;;;;;;5.97;2.60;;;15.10;99.90;;;;;;5075131;28;20276;-39
2022/08/06 07:10:07;;;;;;;9.50;2.50;;;15.10;99.90;;;;;;5075000;28;20211;-40
2022/08/06 07:12:34;;;;;;;7.93;1.90;;;15.30;99.90;;;;;;5074853;28;20185;-40
2022/08/06 07:15:02;;;;;;;6.43;1.83;;;15.40;99.90;;;;;;5074933;28;20187;-41
2022/08/06 07:17:31;;;;;;;4.00;2.00;;;15.50;99.90;;;;;;5075217;28;20211;-41
2022/08/06 07:20:00;;;;;;;5.37;1.90;;;15.60;99.90;;;;;;5074832;28;20294;-40
2022/08/06 07:22:27;;;;;;;4.37;1.80;;;15.70;99.90;;;;;;5074902;28;20180;-41
2022/08/06 07:24:58;;;;;;;5.47;1.87;;;15.90;99.90;;;;;;5074494;28;20175;-42
2022/08/06 07:27:28;;;;;;;8.70;2.33;;;16.00;99.90;;;;;;5075053;28;20164;-41
2022/08/06 07:29:56;;;;;;;5.17;2.67;;;16.20;99.90;;;;;;5072858;28;20207;-40
2022/08/06 07:32:23;;;;;;;4.53;2.00;;;16.40;99.90;;;;;;5074320;28;20203;-41
2022/08/06 07:34:50;;;;;;;4.27;2.20;;;16.50;99.90;;;;;;5074373;28;20180;-41
2022/08/06 07:37:20;;;;;;;3.40;1.63;;;16.70;99.90;;;;;;5074121;28;20195;-39
2022/08/06 07:39:47;;;;;;;5.47;1.67;;;16.70;99.90;;;;;;5074887;28;20620;-41
2022/08/06 07:42:15;;;;;;;2.63;1.40;;;16.70;99.90;;;;;;5074791;28;20183;-41
2022/08/06 07:44:49;;;;;;;4.03;1.77;;;16.80;99.90;;;;;;5075016;28;20176;-41
2022/08/06 07:47:22;;;;;;;4.93;1.90;;;16.90;99.90;;;;;;5074686;28;20175;-41
2022/08/06 07:49:54;;;;;;;6.03;1.37;;;16.80;99.90;;;;;;5074417;28;20203;-42
2022/08/06 07:52:21;;;;;;;7.13;1.60;;;17.00;99.90;;;;;;5074488;28;20213;-42
2022/08/06 07:54:46;;;;;;;4.57;1.40;;;16.90;99.90;;;;;;5074020;28;20632;-41
2022/08/06 07:57:13;;;;;;;4.33;1.40;;;17.10;99.90;;;;;;5073938;28;20179;-43
2022/08/06 07:59:40;;;;;;;4.10;1.17;;;17.10;99.90;;;;;;5074068;28;20183;-40
2022/08/06 08:02:07;;;;;;;5.10;1.30;;;17.30;99.90;;;;;;5071637;28;20183;-42
2022/08/06 08:07:19;;;;;;;4.10;1.17;;;17.60;99.90;;;;;;5073779;28;20174;-42
2022/08/06 08:09:45;;;;;;;3.27;1.30;;;17.80;99.90;;;;;;5073641;28;20554;-40
2022/08/06 08:12:16;;;;;;;5.07;1.17;;;18.10;99.90;;;;;;5074029;28;20186;-40
2022/08/06 08:14:43;;;;;;;1.70;0.93;;;18.30;99.90;;;;;;5073786;28;20182;-41
2022/08/06 08:17:09;;;;;;;3.70;1.40;;;18.60;99.90;;;;;;5073475;28;20180;-41
2022/08/06 08:19:35;;;;;;;5.43;1.07;;;19.00;99.90;;;;;;5073557;28;20186;-41
2022/08/06 08:22:21;;;;;;;2.90;0.73;;;19.10;99.90;;;;;;5073553;28;20721;-41
2022/08/06 08:24:47;;;;;;;1.93;1.00;;;19.00;99.90;;;;;;5073152;28;20191;-41
2022/08/06 08:27:14;;;;;;;3.50;0.80;;;18.70;99.90;;;;;;5073745;28;20237;-42
2022/08/06 08:29:41;;;;;;;1.60;0.57;;;18.70;99.90;;;;;;5073354;28;20203;-42
2022/08/06 08:32:08;;;;;;;2.07;0.80;;;18.60;99.90;;;;;;5073436;28;20187;-41
2022/08/06 08:34:39;;;;;;;1.47;0.50;;;18.50;99.90;;;;;;5073467;28;20199;-42
2022/08/06 08:37:04;;;;;;;2.00;0.63;;;18.50;99.90;;;;;;5071944;28;20195;-41
2022/08/06 08:39:30;;;;;;;2.00;0.50;;;18.40;99.90;;;;;;5072115;28;20583;-40
2022/08/06 08:42:06;;;;;;;3.30;0.70;;;18.60;99.90;;;;;;5073594;28;20206;-48
2022/08/06 08:44:34;;;;;;;3.17;0.80;;;18.60;99.90;;;;;;5073326;28;20175;-47
2022/08/06 08:47:01;;;;;;;3.03;0.50;;;18.60;99.90;;;;;;5073286;28;20179;-46
2022/08/06 08:49:39;;;;;;;2.37;0.60;;;18.50;99.90;;;;;;5073106;28;20293;-48
2022/08/06 08:52:12;;;;;;;0.80;0.40;;;18.60;99.90;;;;;;5073484;28;20198;-47
2022/08/06 08:54:41;;;;;;;1.93;0.40;;;18.80;99.90;;;;;;5072836;28;20563;-48
2022/08/06 08:57:08;;;;;;;2.70;0.60;;;19.00;99.90;;;;;;5073479;28;20211;-48
2022/08/06 08:59:35;;;;;;;1.90;0.50;;;19.10;99.90;;;;;;5073443;28;20191;-47
2022/08/06 09:02:03;;;;;;;1.87;0.60;;;19.20;99.90;;;;;;5073005;28;20262;-49
2022/08/06 09:04:32;;;;;;;1.03;0.60;;;19.20;99.90;;;;;;5072125;28;20513;-47
2022/08/06 09:06:58;;;;;;;1.10;0.40;;;19.30;99.90;;;;;;5073330;28;20337;-47
2022/08/06 09:09:26;;;;;;;1.57;0.50;;;19.30;99.90;;;;;;5072943;28;20709;-47
2022/08/06 09:11:52;;;;;;;0.80;0.50;;;19.40;99.90;;;;;;5073004;28;20199;-49
2022/08/06 09:14:20;;;;;;;1.80;0.90;;;19.70;99.90;;;;;;5075691;28;20190;-47
2022/08/06 09:16:45;;;;;;;1.23;0.47;;;19.80;99.90;;;;;;5077229;28;20182;-48
2022/08/06 09:19:12;;;;;;;1.40;0.50;;;19.90;99.90;;;;;;5077196;28;20191;-49
2022/08/06 09:21:38;;;;;;;4.07;0.60;;;19.90;99.90;;;;;;5075603;28;20702;-47
2022/08/06 09:24:04;;;;;;;2.50;0.80;;;19.90;99.90;;;;;;5077177;28;20183;-47
2022/08/06 09:26:33;;;;;;;1.67;0.47;;;19.90;99.90;;;;;;5077200;28;20483;-48
2022/08/06 09:28:59;;;;;;;1.87;0.60;;;19.90;99.90;;;;;;5076812;28;20194;-47
2022/08/06 09:31:24;;;;;;;2.83;0.70;;;20.00;99.90;;;;;;5076528;28;20204;-47
2022/08/06 09:33:54;;;;;;;1.97;0.50;;;20.00;99.90;;;;;;5076535;28;20272;-46
2022/08/06 09:36:20;;;;;;;2.27;0.77;;;19.90;99.90;;;;;;5076535;28;20202;-47
2022/08/06 09:38:52;;;;;;;2.33;0.60;;;19.90;99.90;;;;;;5076954;28;20172;-47
2022/08/06 09:41:20;;;;;;;1.43;0.50;;;19.90;99.90;;;;;;5076406;28;20747;-47
2022/08/06 09:43:48;;;;;;;1.53;0.60;;;19.80;99.90;;;;;;5076703;28;20275;-49
2022/08/06 09:46:14;;;;;;;2.47;0.60;;;19.60;99.90;;;;;;5076554;28;20183;-49
2022/08/06 09:48:57;;;;;;;1.00;0.70;;;19.60;99.90;;;;;;5077031;28;20203;-48
2022/08/06 09:51:24;;;;;;;1.93;0.50;;;19.60;99.90;;;;;;5076378;28;20207;-47
2022/08/06 09:53:57;;;;;;;1.80;0.60;;;19.70;99.90;;;;;;5076147;28;20176;-48
2022/08/06 09:56:24;;;;;;;1.50;0.50;;;20.00;99.90;;;;;;5076457;28;20163;-46
2022/08/06 09:58:50;;;;;;;1.53;0.50;;;20.20;99.90;;;;;;5076503;28;20264;-46
2022/08/06 10:01:21;;;;;;;0.70;0.33;;;20.30;99.90;;;;;;5076030;28;20656;-46
2022/08/06 10:03:47;;;;;;;3.87;0.50;;;20.40;99.90;;;;;;5076312;28;20202;-45
2022/08/06 10:06:20;;;;;;;0.87;0.50;;;20.60;99.90;;;;;;5075986;28;20738;-45
2022/08/06 10:08:50;;;;;;;3.50;0.77;;;20.80;99.90;;;;;;5076189;28;20542;-47
2022/08/06 10:11:39;;;;;;;3.03;0.67;;;21.00;99.90;;;;;;5075931;28;20202;-46
2022/08/06 10:14:19;;;;;;;1.33;0.53;;;21.00;99.90;;;;;;5075877;28;20164;-45
2022/08/06 10:17:12;;;;;;;0.90;0.50;;;21.00;99.90;;;;;;5076201;28;20199;-44
2022/08/06 10:19:41;;;;;;;1.03;0.50;;;20.90;99.90;;;;;;5075910;28;20217;-46
2022/08/06 10:22:15;;;;;;;3.17;0.80;;;21.00;99.90;;;;;;5075934;28;20232;-46
2022/08/06 10:24:45;;;;;;;2.30;0.60;;;21.20;99.90;;;;;;5074864;28;20183;-45
2022/08/06 10:27:13;;;;;;;1.27;0.40;;;21.40;99.90;;;;;;5075582;28;20168;-47
2022/08/06 10:29:45;;;;;;;2.53;0.30;;;21.30;99.90;;;;;;5075480;28;20195;-47
2022/08/06 10:32:16;;;;;;;2.43;0.67;;;21.10;99.90;;;;;;5076101;28;20677;-45
2022/08/06 10:34:44;;;;;;;1.73;0.37;;;20.80;99.90;;;;;;5075438;28;20678;-45
2022/08/06 10:37:11;;;;;;;2.73;0.70;;;20.60;99.90;;;;;;5075450;28;20598;-45
2022/08/06 10:39:42;;;;;;;2.17;0.50;;;20.50;99.90;;;;;;5075254;28;20187;-46
2022/08/06 10:42:08;;;;;;;1.40;0.50;;;20.50;99.90;;;;;;5075584;28;20634;-46
2022/08/06 10:44:34;;;;;;;1.30;0.50;;;20.50;99.90;;;;;;5075396;28;20196;-44
2022/08/06 10:47:01;;;;;;;7.33;0.80;;;20.50;99.90;;;;;;5075170;28;20188;-46
2022/08/06 10:49:27;;;;;;;1.07;0.40;;;20.50;99.90;;;;;;5075086;28;20210;-46
2022/08/06 10:51:54;;;;;;;4.03;0.50;;;20.60;99.90;;;;;;5075061;28;20266;-46
2022/08/06 10:54:20;;;;;;;1.07;0.57;;;20.70;99.90;;;;;;5075286;28;20180;-47
2022/08/06 10:56:46;;;;;;;1.20;0.80;;;20.90;99.90;;;;;;5074985;28;20701;-46
2022/08/06 10:59:15;;;;;;;0.77;0.40;;;21.20;99.90;;;;;;5075240;28;20176;-46
2022/08/06 11:02:16;;;;;;;0.83;0.40;;;21.50;99.90;;;;;;5074931;28;20226;-47
2022/08/06 11:04:51;;;;;;;1.20;0.50;;;21.80;99.90;;;;;;5075100;28;20176;-46
2022/08/06 11:07:40;;;;;;;1.80;0.53;;;21.90;99.90;;;;;;5074838;28;20175;-45
2022/08/06 11:10:27;;;;;;;0.90;0.60;;;21.90;99.90;;;;;;5074679;28;20314;-46
2022/08/06 11:13:02;;;;;;;1.17;0.50;;;22.20;99.90;;;;;;5075014;28;20171;-45
2022/08/06 11:15:34;;;;;;;0.67;0.40;;;22.40;99.90;;;;;;5074614;28;20170;-46
2022/08/06 11:18:05;;;;;;;3.40;0.30;;;22.60;99.90;;;;;;5074863;28;20163;-47
2022/08/06 11:20:36;;;;;;;0.67;0.40;;;22.50;99.20;;;;;;5074450;28;20214;-45
2022/08/06 11:23:05;;;;;;;2.10;0.80;;;22.40;99.90;;;;;;5074505;28;20172;-46
2022/08/06 11:25:45;;;;;;;0.97;0.53;;;22.50;99.90;;;;;;5074430;28;20182;-46
2022/08/06 11:28:15;;;;;;;0.40;0.30;;;22.50;98.80;;;;;;5074698;28;20168;-46
2022/08/06 11:30:45;;;;;;;2.30;0.50;;;22.30;99.90;;;;;;5074241;28;20222;-45
2022/08/06 11:33:13;;;;;;;1.50;0.50;;;22.00;99.40;;;;;;5074500;28;20176;-44
2022/08/06 11:35:40;;;;;;;3.13;0.50;;;21.90;99.90;;;;;;5072723;28;20198;-45
2022/08/06 11:38:08;;;;;;;1.30;0.80;;;22.00;99.90;;;;;;5074081;28;20202;-45
2022/08/06 11:40:57;;;;;;;1.17;0.40;;;21.70;99.90;;;;;;5074342;28;20195;-43
2022/08/06 11:43:40;;;;;;;2.03;0.47;;;21.70;99.90;;;;;;5074091;28;20206;-44
2022/08/06 11:46:28;;;;;;;1.57;0.50;;;21.60;99.90;;;;;;5074328;28;20262;-42
2022/08/06 11:48:59;;;;;;;2.73;0.50;;;21.90;99.90;;;;;;5074171;28;20191;-44
2022/08/06 11:51:43;;;;;;;0.70;0.53;;;22.20;99.90;;;;;;5073844;28;20229;-44
2022/08/06 11:54:28;;;;;;;1.33;0.40;;;22.40;99.90;;;;;;5073909;28;20152;-45
2022/08/06 11:57:04;;;;;;;0.87;0.50;;;22.80;99.90;;;;;;5074165;28;20593;-44
2022/08/06 11:59:37;;;;;;;2.77;0.63;;;23.10;99.90;;;;;;5073996;28;20262;-44
2022/08/06 12:02:08;;;;;;;1.97;0.50;;;23.50;99.90;;;;;;5074014;28;20580;-44
2022/08/06 12:04:36;;;;;;;2.10;0.50;;;23.70;99.90;;;;;;5074091;28;20164;-44
2022/08/06 12:07:19;;;;;;;1.40;0.30;;;23.60;99.90;;;;;;5073697;28;20186;-43
2022/08/06 12:09:46;;;;;;;0.97;0.80;;;23.60;98.40;;;;;;5073808;28;20199;-44
2022/08/06 12:12:30;;;;;;;0.47;0.33;;;23.40;98.60;;;;;;5073944;28;20176;-45
2022/08/06 12:14:57;;;;;;;0.60;0.57;;;23.00;97.80;;;;;;5073766;28;20250;-44
2022/08/06 12:17:25;;;;;;;3.57;0.57;;;22.60;99.10;;;;;;5073796;28;20183;-44
2022/08/06 12:19:52;;;;;;;1.63;0.43;;;22.40;98.70;;;;;;5073844;28;20601;-45
2022/08/06 12:22:20;;;;;;;1.20;0.50;;;22.40;99.90;;;;;;5074325;28;20526;-44
2022/08/06 12:24:49;;;;;;;0.80;0.50;;;22.50;99.90;;;;;;5073729;28;20183;-44
2022/08/06 12:27:15;;;;;;;0.90;0.47;;;22.70;99.20;;;;;;5073743;28;20183;-44
2022/08/06 12:29:42;;;;;;;0.77;0.30;;;22.70;99.10;;;;;;5073548;28;20295;-43
2022/08/06 12:32:24;;;;;;;1.00;0.50;;;22.80;99.90;;;;;;5073380;28;20171;-44
2022/08/06 12:34:52;;;;;;;2.10;0.53;;;23.10;99.90;;;;;;5073255;28;20202;-44
2022/08/06 12:37:18;;;;;;;1.10;0.60;;;23.30;98.50;;;;;;5073356;28;20195;-44
2022/08/06 12:42:31;;;;;;;1.20;0.50;;;23.00;98.10;;;;;;5073827;28;20548;-44
2022/08/06 12:44:57;;;;;;;1.77;0.50;;;22.50;97.70;;;;;;5073215;28;20194;-42
2022/08/06 12:47:25;;;;;;;0.40;0.40;;;22.40;98.50;;;;;;5073875;28;20184;-44
2022/08/06 12:49:52;;;;;;;0.83;0.30;;;22.40;97.00;;;;;;5079783;28;20620;-43
2022/08/06 12:52:22;;;;;;;2.00;0.50;;;22.30;98.20;;;;;;5080121;28;20269;-44
2022/08/06 12:54:49;;;;;;;0.80;0.60;;;22.20;97.80;;;;;;5079821;28;20643;-43
2022/08/06 12:57:30;;;;;;;1.40;0.53;;;22.10;97.90;;;;;;5080114;28;20182;-44
2022/08/06 12:59:57;;;;;;;3.00;0.80;;;22.10;98.50;;;;;;5079718;28;20174;-42
2022/08/06 13:02:24;;;;;;;2.10;0.70;;;22.20;99.90;;;;;;5079780;28;20186;-44
2022/08/06 13:04:52;;;;;;;1.10;0.50;;;22.30;99.90;;;;;;5079739;28;20183;-43
2022/08/06 13:07:19;;;;;;;1.37;0.60;;;22.40;99.90;;;;;;5079732;28;20183;-43
2022/08/06 13:09:46;;;;;;;1.87;0.60;;;22.60;99.90;;;;;;5079832;28;20219;-44